sensor_id;sensor_type;location;lat;lon;timestamp;P1;durP1;ratioP1;P2;durP2;ratioP2
70026;SDS011;57506;50.092;15.804;2022-07-22T00:01:03;9.10;;;6.67;;
70026;SDS011;57506;50.092;15.804;2022-07-22T00:03:29;18.42;;;7.53;;
70026;SDS011;57506;50.092;15.804;2022-07-22T00:05:54;10.77;;;7.33;;
70026;SDS011;57506;50.092;15.804;2022-07-22T00:08:20;12.27;;;7.28;;
70026;SDS011;57506;50.092;15.804;2022-07-22T00:10:46;11.80;;;7.17;;
70026;SDS011;57506;50.092;15.804;2022-07-22T00:13:12;15.40;;;8.07;;
70026;SDS011;57506;50.092;15.804;2022-07-22T00:15:37;11.07;;;8.23;;
70026;SDS011;57506;50.092;15.804;2022-07-22T00:18:03;11.63;;;7.68;;
70026;SDS011;57506;50.092;15.804;2022-07-22T00:20:29;11.90;;;7.37;;
70026;SDS011;57506;50.092;15.804;2022-07-22T00:22:54;11.18;;;6.95;;
70026;SDS011;57506;50.092;15.804;2022-07-22T00:25:20;12.50;;;7.70;;
70026;SDS011;57506;50.092;15.804;2022-07-22T00:27:46;10.95;;;7.88;;
70026;SDS011;57506;50.092;15.804;2022-07-22T00:30:12;13.63;;;7.82;;
70026;SDS011;57506;50.092;15.804;2022-07-22T00:32:37;18.27;;;7.80;;
70026;SDS011;57506;50.092;15.804;2022-07-22T00:35:04;10.75;;;7.18;;
70026;SDS011;57506;50.092;15.804;2022-07-22T00:37:30;12.52;;;8.30;;
70026;SDS011;57506;50.092;15.804;2022-07-22T00:39:56;14.83;;;8.20;;
70026;SDS011;57506;50.092;15.804;2022-07-22T00:42:22;14.25;;;7.95;;
70026;SDS011;57506;50.092;15.804;2022-07-22T00:44:47;10.43;;;7.60;;
70026;SDS011;57506;50.092;15.804;2022-07-22T00:47:13;11.65;;;8.13;;
70026;SDS011;57506;50.092;15.804;2022-07-22T00:49:39;12.13;;;8.13;;
70026;SDS011;57506;50.092;15.804;2022-07-22T00:52:04;13.43;;;9.00;;
70026;SDS011;57506;50.092;15.804;2022-07-22T00:54:31;14.50;;;9.73;;
70026;SDS011;57506;50.092;15.804;2022-07-22T00:56:57;15.53;;;9.07;;
70026;SDS011;57506;50.092;15.804;2022-07-22T00:59:23;13.77;;;9.60;;
70026;SDS011;57506;50.092;15.804;2022-07-22T01:01:49;16.92;;;9.80;;
70026;SDS011;57506;50.092;15.804;2022-07-22T01:04:14;12.37;;;8.77;;
70026;SDS011;57506;50.092;15.804;2022-07-22T01:06:40;15.90;;;10.18;;
70026;SDS011;57506;50.092;15.804;2022-07-22T01:09:10;12.90;;;9.63;;
70026;SDS011;57506;50.092;15.804;2022-07-22T01:11:36;14.33;;;9.97;;
70026;SDS011;57506;50.092;15.804;2022-07-22T01:14:02;12.68;;;9.27;;
70026;SDS011;57506;50.092;15.804;2022-07-22T01:16:28;14.68;;;8.88;;
70026;SDS011;57506;50.092;15.804;2022-07-22T01:18:54;11.23;;;8.70;;
70026;SDS011;57506;50.092;15.804;2022-07-22T01:21:20;11.70;;;8.40;;
70026;SDS011;57506;50.092;15.804;2022-07-22T01:23:46;12.37;;;8.73;;
70026;SDS011;57506;50.092;15.804;2022-07-22T01:26:12;10.55;;;8.20;;
70026;SDS011;57506;50.092;15.804;2022-07-22T01:28:39;15.00;;;8.57;;
70026;SDS011;57506;50.092;15.804;2022-07-22T01:31:05;14.73;;;9.00;;
70026;SDS011;57506;50.092;15.804;2022-07-22T01:33:31;12.27;;;8.27;;
70026;SDS011;57506;50.092;15.804;2022-07-22T01:35:57;11.17;;;8.67;;
70026;SDS011;57506;50.092;15.804;2022-07-22T01:38:23;17.58;;;8.70;;
70026;SDS011;57506;50.092;15.804;2022-07-22T01:40:48;13.67;;;8.57;;
70026;SDS011;57506;50.092;15.804;2022-07-22T01:43:14;14.60;;;9.27;;
70026;SDS011;57506;50.092;15.804;2022-07-22T01:45:46;12.65;;;9.13;;
70026;SDS011;57506;50.092;15.804;2022-07-22T01:48:14;14.73;;;10.73;;
70026;SDS011;57506;50.092;15.804;2022-07-22T01:50:40;20.70;;;10.60;;
70026;SDS011;57506;50.092;15.804;2022-07-22T01:53:06;14.32;;;9.35;;
70026;SDS011;57506;50.092;15.804;2022-07-22T01:55:33;14.95;;;10.98;;
70026;SDS011;57506;50.092;15.804;2022-07-22T01:57:59;15.48;;;10.57;;
70026;SDS011;57506;50.092;15.804;2022-07-22T02:00:25;14.98;;;10.45;;
70026;SDS011;57506;50.092;15.804;2022-07-22T02:02:51;18.47;;;10.37;;
70026;SDS011;57506;50.092;15.804;2022-07-22T02:05:16;16.40;;;10.45;;
70026;SDS011;57506;50.092;15.804;2022-07-22T02:07:42;16.33;;;10.67;;
70026;SDS011;57506;50.092;15.804;2022-07-22T02:10:08;14.43;;;10.15;;
70026;SDS011;57506;50.092;15.804;2022-07-22T02:12:34;19.35;;;10.68;;
70026;SDS011;57506;50.092;15.804;2022-07-22T02:15:00;16.57;;;10.07;;
70026;SDS011;57506;50.092;15.804;2022-07-22T02:17:25;19.43;;;10.47;;
70026;SDS011;57506;50.092;15.804;2022-07-22T02:19:51;18.10;;;10.47;;
70026;SDS011;57506;50.092;15.804;2022-07-22T02:22:17;18.52;;;10.07;;
70026;SDS011;57506;50.092;15.804;2022-07-22T02:24:43;14.77;;;10.43;;
70026;SDS011;57506;50.092;15.804;2022-07-22T02:27:08;15.23;;;10.52;;
70026;SDS011;57506;50.092;15.804;2022-07-22T02:29:34;15.10;;;10.27;;
70026;SDS011;57506;50.092;15.804;2022-07-22T02:32:00;14.32;;;9.48;;
70026;SDS011;57506;50.092;15.804;2022-07-22T02:34:25;12.80;;;8.33;;
70026;SDS011;57506;50.092;15.804;2022-07-22T02:36:51;14.98;;;9.10;;
70026;SDS011;57506;50.092;15.804;2022-07-22T02:39:17;15.63;;;10.57;;
70026;SDS011;57506;50.092;15.804;2022-07-22T02:41:43;14.00;;;10.00;;
70026;SDS011;57506;50.092;15.804;2022-07-22T02:44:08;14.10;;;10.50;;
70026;SDS011;57506;50.092;15.804;2022-07-22T02:46:34;12.88;;;9.27;;
70026;SDS011;57506;50.092;15.804;2022-07-22T02:49:00;14.67;;;9.20;;
70026;SDS011;57506;50.092;15.804;2022-07-22T02:51:26;14.48;;;9.68;;
70026;SDS011;57506;50.092;15.804;2022-07-22T02:53:51;13.90;;;9.27;;
70026;SDS011;57506;50.092;15.804;2022-07-22T02:56:17;13.60;;;10.13;;
70026;SDS011;57506;50.092;15.804;2022-07-22T02:58:44;14.52;;;9.20;;
70026;SDS011;57506;50.092;15.804;2022-07-22T03:01:11;12.02;;;9.43;;
70026;SDS011;57506;50.092;15.804;2022-07-22T03:03:38;16.17;;;10.07;;
70026;SDS011;57506;50.092;15.804;2022-07-22T03:06:04;16.30;;;10.00;;
70026;SDS011;57506;50.092;15.804;2022-07-22T03:08:30;17.70;;;9.50;;
70026;SDS011;57506;50.092;15.804;2022-07-22T03:10:55;15.30;;;10.00;;
70026;SDS011;57506;50.092;15.804;2022-07-22T03:13:21;17.40;;;10.85;;
70026;SDS011;57506;50.092;15.804;2022-07-22T03:15:47;13.83;;;10.03;;
70026;SDS011;57506;50.092;15.804;2022-07-22T03:18:13;15.83;;;9.73;;
70026;SDS011;57506;50.092;15.804;2022-07-22T03:20:38;14.43;;;11.07;;
70026;SDS011;57506;50.092;15.804;2022-07-22T03:23:04;15.18;;;10.65;;
70026;SDS011;57506;50.092;15.804;2022-07-22T03:25:29;17.53;;;11.03;;
70026;SDS011;57506;50.092;15.804;2022-07-22T03:27:57;16.75;;;10.57;;
70026;SDS011;57506;50.092;15.804;2022-07-22T03:30:23;18.23;;;11.18;;
70026;SDS011;57506;50.092;15.804;2022-07-22T03:32:48;16.57;;;11.00;;
70026;SDS011;57506;50.092;15.804;2022-07-22T03:35:14;14.48;;;10.13;;
70026;SDS011;57506;50.092;15.804;2022-07-22T03:37:40;12.60;;;9.48;;
70026;SDS011;57506;50.092;15.804;2022-07-22T03:40:06;14.00;;;10.20;;
70026;SDS011;57506;50.092;15.804;2022-07-22T03:42:33;14.95;;;9.93;;
70026;SDS011;57506;50.092;15.804;2022-07-22T03:44:58;16.37;;;9.50;;
70026;SDS011;57506;50.092;15.804;2022-07-22T03:47:24;16.33;;;9.70;;
70026;SDS011;57506;50.092;15.804;2022-07-22T03:49:50;13.20;;;9.27;;
70026;SDS011;57506;50.092;15.804;2022-07-22T03:52:16;12.52;;;8.80;;
70026;SDS011;57506;50.092;15.804;2022-07-22T03:54:42;12.32;;;8.98;;
70026;SDS011;57506;50.092;15.804;2022-07-22T03:57:08;13.03;;;9.00;;
70026;SDS011;57506;50.092;15.804;2022-07-22T03:59:34;12.77;;;9.40;;
70026;SDS011;57506;50.092;15.804;2022-07-22T04:02:00;12.48;;;9.20;;
70026;SDS011;57506;50.092;15.804;2022-07-22T04:04:26;13.32;;;9.77;;
70026;SDS011;57506;50.092;15.804;2022-07-22T04:06:52;17.87;;;12.37;;
70026;SDS011;57506;50.092;15.804;2022-07-22T04:09:18;19.33;;;11.95;;
70026;SDS011;57506;50.092;15.804;2022-07-22T04:11:44;17.58;;;12.07;;
70026;SDS011;57506;50.092;15.804;2022-07-22T04:14:09;17.60;;;12.07;;
70026;SDS011;57506;50.092;15.804;2022-07-22T04:16:35;16.40;;;12.20;;
70026;SDS011;57506;50.092;15.804;2022-07-22T04:19:04;20.40;;;13.87;;
70026;SDS011;57506;50.092;15.804;2022-07-22T04:21:30;20.25;;;12.90;;
70026;SDS011;57506;50.092;15.804;2022-07-22T04:23:55;22.60;;;14.93;;
70026;SDS011;57506;50.092;15.804;2022-07-22T04:26:21;19.15;;;14.05;;
70026;SDS011;57506;50.092;15.804;2022-07-22T04:28:47;21.63;;;13.33;;
70026;SDS011;57506;50.092;15.804;2022-07-22T04:31:13;21.33;;;13.77;;
70026;SDS011;57506;50.092;15.804;2022-07-22T04:33:38;18.47;;;12.93;;
70026;SDS011;57506;50.092;15.804;2022-07-22T04:36:04;21.47;;;13.57;;
70026;SDS011;57506;50.092;15.804;2022-07-22T04:38:30;18.98;;;13.27;;
70026;SDS011;57506;50.092;15.804;2022-07-22T04:40:55;17.27;;;13.50;;
70026;SDS011;57506;50.092;15.804;2022-07-22T04:43:21;18.73;;;12.98;;
70026;SDS011;57506;50.092;15.804;2022-07-22T04:45:47;19.25;;;12.30;;
70026;SDS011;57506;50.092;15.804;2022-07-22T04:48:13;16.90;;;12.10;;
70026;SDS011;57506;50.092;15.804;2022-07-22T04:50:38;19.58;;;11.90;;
70026;SDS011;57506;50.092;15.804;2022-07-22T04:53:04;16.40;;;11.10;;
70026;SDS011;57506;50.092;15.804;2022-07-22T04:55:30;24.13;;;12.05;;
70026;SDS011;57506;50.092;15.804;2022-07-22T04:57:55;19.00;;;12.03;;
70026;SDS011;57506;50.092;15.804;2022-07-22T05:00:21;14.87;;;11.40;;
70026;SDS011;57506;50.092;15.804;2022-07-22T05:02:49;18.75;;;12.43;;
70026;SDS011;57506;50.092;15.804;2022-07-22T05:05:14;15.93;;;11.63;;
70026;SDS011;57506;50.092;15.804;2022-07-22T05:07:40;18.75;;;11.73;;
70026;SDS011;57506;50.092;15.804;2022-07-22T05:10:05;17.33;;;12.50;;
70026;SDS011;57506;50.092;15.804;2022-07-22T05:12:31;15.40;;;11.95;;
70026;SDS011;57506;50.092;15.804;2022-07-22T05:14:56;17.37;;;11.97;;
70026;SDS011;57506;50.092;15.804;2022-07-22T05:17:22;19.70;;;12.37;;
70026;SDS011;57506;50.092;15.804;2022-07-22T05:19:47;21.23;;;12.88;;
70026;SDS011;57506;50.092;15.804;2022-07-22T05:22:13;19.55;;;12.80;;
70026;SDS011;57506;50.092;15.804;2022-07-22T05:24:39;19.43;;;12.77;;
70026;SDS011;57506;50.092;15.804;2022-07-22T05:27:05;16.83;;;11.77;;
70026;SDS011;57506;50.092;15.804;2022-07-22T05:29:30;18.60;;;12.20;;
70026;SDS011;57506;50.092;15.804;2022-07-22T05:31:56;16.47;;;11.90;;
70026;SDS011;57506;50.092;15.804;2022-07-22T05:34:22;18.00;;;11.63;;
70026;SDS011;57506;50.092;15.804;2022-07-22T05:36:47;21.87;;;12.00;;
70026;SDS011;57506;50.092;15.804;2022-07-22T05:39:13;19.20;;;11.55;;
70026;SDS011;57506;50.092;15.804;2022-07-22T05:41:39;15.77;;;11.73;;
70026;SDS011;57506;50.092;15.804;2022-07-22T05:44:05;18.05;;;11.88;;
70026;SDS011;57506;50.092;15.804;2022-07-22T05:46:30;15.97;;;11.50;;
70026;SDS011;57506;50.092;15.804;2022-07-22T05:48:56;19.65;;;11.85;;
70026;SDS011;57506;50.092;15.804;2022-07-22T05:51:21;17.93;;;11.37;;
70026;SDS011;57506;50.092;15.804;2022-07-22T05:53:47;17.30;;;11.93;;
70026;SDS011;57506;50.092;15.804;2022-07-22T05:56:13;17.03;;;11.93;;
70026;SDS011;57506;50.092;15.804;2022-07-22T05:58:39;20.83;;;12.23;;
70026;SDS011;57506;50.092;15.804;2022-07-22T06:01:06;17.13;;;11.75;;
70026;SDS011;57506;50.092;15.804;2022-07-22T06:03:32;17.67;;;12.50;;
70026;SDS011;57506;50.092;15.804;2022-07-22T06:05:57;17.20;;;12.55;;
70026;SDS011;57506;50.092;15.804;2022-07-22T06:08:23;16.08;;;11.90;;
70026;SDS011;57506;50.092;15.804;2022-07-22T06:10:49;14.80;;;11.90;;
70026;SDS011;57506;50.092;15.804;2022-07-22T06:13:14;13.87;;;11.47;;
70026;SDS011;57506;50.092;15.804;2022-07-22T06:15:40;15.23;;;11.02;;
70026;SDS011;57506;50.092;15.804;2022-07-22T06:18:05;17.67;;;11.73;;
70026;SDS011;57506;50.092;15.804;2022-07-22T06:20:31;16.60;;;12.13;;
70026;SDS011;57506;50.092;15.804;2022-07-22T06:22:57;15.00;;;11.70;;
70026;SDS011;57506;50.092;15.804;2022-07-22T06:25:23;19.85;;;11.88;;
70026;SDS011;57506;50.092;15.804;2022-07-22T06:27:48;16.97;;;11.63;;
70026;SDS011;57506;50.092;15.804;2022-07-22T06:30:14;17.37;;;11.77;;
70026;SDS011;57506;50.092;15.804;2022-07-22T06:32:39;16.10;;;12.00;;
70026;SDS011;57506;50.092;15.804;2022-07-22T06:35:05;15.63;;;12.68;;
70026;SDS011;57506;50.092;15.804;2022-07-22T06:37:31;20.65;;;13.57;;
70026;SDS011;57506;50.092;15.804;2022-07-22T06:39:57;18.43;;;13.07;;
70026;SDS011;57506;50.092;15.804;2022-07-22T06:42:22;16.93;;;12.37;;
70026;SDS011;57506;50.092;15.804;2022-07-22T06:44:48;17.00;;;12.88;;
70026;SDS011;57506;50.092;15.804;2022-07-22T06:47:14;18.53;;;13.07;;
70026;SDS011;57506;50.092;15.804;2022-07-22T06:49:39;16.17;;;13.20;;
70026;SDS011;57506;50.092;15.804;2022-07-22T06:52:05;17.87;;;13.70;;
70026;SDS011;57506;50.092;15.804;2022-07-22T06:54:32;18.65;;;13.98;;
70026;SDS011;57506;50.092;15.804;2022-07-22T06:56:57;18.37;;;12.97;;
70026;SDS011;57506;50.092;15.804;2022-07-22T06:59:23;17.63;;;14.02;;
70026;SDS011;57506;50.092;15.804;2022-07-22T07:01:49;16.98;;;13.73;;
70026;SDS011;57506;50.092;15.804;2022-07-22T07:04:15;15.77;;;13.03;;
70026;SDS011;57506;50.092;15.804;2022-07-22T07:06:43;18.17;;;13.38;;
70026;SDS011;57506;50.092;15.804;2022-07-22T07:09:09;17.45;;;14.00;;
70026;SDS011;57506;50.092;15.804;2022-07-22T07:11:35;17.50;;;13.63;;
70026;SDS011;57506;50.092;15.804;2022-07-22T07:14:00;23.40;;;13.30;;
70026;SDS011;57506;50.092;15.804;2022-07-22T07:16:26;18.25;;;12.55;;
70026;SDS011;57506;50.092;15.804;2022-07-22T07:18:52;17.63;;;13.40;;
70026;SDS011;57506;50.092;15.804;2022-07-22T07:21:18;18.38;;;12.93;;
70026;SDS011;57506;50.092;15.804;2022-07-22T07:23:43;18.87;;;12.83;;
70026;SDS011;57506;50.092;15.804;2022-07-22T07:26:09;16.23;;;12.97;;
70026;SDS011;57506;50.092;15.804;2022-07-22T07:28:34;15.60;;;12.82;;
70026;SDS011;57506;50.092;15.804;2022-07-22T07:31:00;20.23;;;13.23;;
70026;SDS011;57506;50.092;15.804;2022-07-22T07:33:26;15.77;;;13.05;;
70026;SDS011;57506;50.092;15.804;2022-07-22T07:35:52;15.57;;;12.07;;
70026;SDS011;57506;50.092;15.804;2022-07-22T07:38:17;15.77;;;12.17;;
70026;SDS011;57506;50.092;15.804;2022-07-22T07:40:43;16.50;;;12.65;;
70026;SDS011;57506;50.092;15.804;2022-07-22T07:43:09;16.93;;;13.13;;
70026;SDS011;57506;50.092;15.804;2022-07-22T07:45:34;15.70;;;11.95;;
70026;SDS011;57506;50.092;15.804;2022-07-22T07:48:01;16.90;;;12.40;;
70026;SDS011;57506;50.092;15.804;2022-07-22T07:50:28;15.57;;;12.05;;
70026;SDS011;57506;50.092;15.804;2022-07-22T07:52:53;15.18;;;11.18;;
70026;SDS011;57506;50.092;15.804;2022-07-22T07:55:20;12.97;;;10.13;;
70026;SDS011;57506;50.092;15.804;2022-07-22T07:57:45;11.55;;;9.02;;
70026;SDS011;57506;50.092;15.804;2022-07-22T08:00:14;13.07;;;9.25;;
70026;SDS011;57506;50.092;15.804;2022-07-22T08:02:40;13.02;;;10.45;;
70026;SDS011;57506;50.092;15.804;2022-07-22T08:05:06;14.93;;;10.60;;
70026;SDS011;57506;50.092;15.804;2022-07-22T08:07:32;13.40;;;10.90;;
70026;SDS011;57506;50.092;15.804;2022-07-22T08:09:58;14.50;;;10.52;;
70026;SDS011;57506;50.092;15.804;2022-07-22T08:12:23;13.20;;;10.73;;
70026;SDS011;57506;50.092;15.804;2022-07-22T08:14:49;16.27;;;10.80;;
70026;SDS011;57506;50.092;15.804;2022-07-22T08:17:15;14.30;;;10.75;;
70026;SDS011;57506;50.092;15.804;2022-07-22T08:19:40;18.30;;;10.23;;
70026;SDS011;57506;50.092;15.804;2022-07-22T08:22:05;13.13;;;10.40;;
70026;SDS011;57506;50.092;15.804;2022-07-22T08:24:31;13.05;;;10.30;;
70026;SDS011;57506;50.092;15.804;2022-07-22T08:26:57;16.93;;;10.63;;
70026;SDS011;57506;50.092;15.804;2022-07-22T08:29:22;12.95;;;10.38;;
70026;SDS011;57506;50.092;15.804;2022-07-22T08:31:48;12.20;;;9.80;;
70026;SDS011;57506;50.092;15.804;2022-07-22T08:34:14;14.15;;;9.63;;
70026;SDS011;57506;50.092;15.804;2022-07-22T08:36:39;14.30;;;10.50;;
70026;SDS011;57506;50.092;15.804;2022-07-22T08:39:05;15.18;;;10.30;;
70026;SDS011;57506;50.092;15.804;2022-07-22T08:41:33;12.03;;;9.47;;
70026;SDS011;57506;50.092;15.804;2022-07-22T08:44:01;12.32;;;9.77;;
70026;SDS011;57506;50.092;15.804;2022-07-22T08:46:28;15.02;;;9.88;;
70026;SDS011;57506;50.092;15.804;2022-07-22T08:48:54;12.40;;;9.47;;
70026;SDS011;57506;50.092;15.804;2022-07-22T08:51:20;12.90;;;9.00;;
70026;SDS011;57506;50.092;15.804;2022-07-22T08:53:46;12.68;;;9.18;;
70026;SDS011;57506;50.092;15.804;2022-07-22T08:56:12;14.43;;;9.00;;
70026;SDS011;57506;50.092;15.804;2022-07-22T08:58:39;12.82;;;8.90;;
70026;SDS011;57506;50.092;15.804;2022-07-22T09:01:07;9.10;;;7.63;;
70026;SDS011;57506;50.092;15.804;2022-07-22T09:03:51;10.68;;;7.93;;
70026;SDS011;57506;50.092;15.804;2022-07-22T09:06:20;10.80;;;8.68;;
70026;SDS011;57506;50.092;15.804;2022-07-22T09:11:20;11.73;;;7.95;;
70026;SDS011;57506;50.092;15.804;2022-07-22T09:13:47;11.40;;;8.50;;
70026;SDS011;57506;50.092;15.804;2022-07-22T09:16:13;13.50;;;8.27;;
70026;SDS011;57506;50.092;15.804;2022-07-22T09:18:49;12.93;;;9.15;;
70026;SDS011;57506;50.092;15.804;2022-07-22T09:21:19;14.13;;;9.07;;
70026;SDS011;57506;50.092;15.804;2022-07-22T09:23:46;10.18;;;8.13;;
70026;SDS011;57506;50.092;15.804;2022-07-22T09:28:58;9.57;;;7.10;;
70026;SDS011;57506;50.092;15.804;2022-07-22T09:31:25;10.20;;;6.63;;
70026;SDS011;57506;50.092;15.804;2022-07-22T09:33:52;10.50;;;6.72;;
70026;SDS011;57506;50.092;15.804;2022-07-22T09:36:19;10.20;;;6.53;;
70026;SDS011;57506;50.092;15.804;2022-07-22T09:38:45;10.63;;;6.57;;
70026;SDS011;57506;50.092;15.804;2022-07-22T09:41:10;10.47;;;6.60;;
70026;SDS011;57506;50.092;15.804;2022-07-22T09:43:36;11.32;;;6.40;;
70026;SDS011;57506;50.092;15.804;2022-07-22T09:46:02;9.20;;;6.63;;
70026;SDS011;57506;50.092;15.804;2022-07-22T09:48:29;10.48;;;7.05;;
70026;SDS011;57506;50.092;15.804;2022-07-22T09:50:55;11.50;;;6.90;;
70026;SDS011;57506;50.092;15.804;2022-07-22T09:53:23;11.23;;;6.95;;
70026;SDS011;57506;50.092;15.804;2022-07-22T09:55:52;10.97;;;6.87;;
70026;SDS011;57506;50.092;15.804;2022-07-22T09:58:17;9.70;;;7.20;;
70026;SDS011;57506;50.092;15.804;2022-07-22T10:00:43;10.27;;;7.27;;
70026;SDS011;57506;50.092;15.804;2022-07-22T10:03:11;10.50;;;6.72;;
70026;SDS011;57506;50.092;15.804;2022-07-22T10:05:42;10.02;;;6.72;;
70026;SDS011;57506;50.092;15.804;2022-07-22T10:08:08;9.80;;;6.80;;
70026;SDS011;57506;50.092;15.804;2022-07-22T10:10:35;11.53;;;6.47;;
70026;SDS011;57506;50.092;15.804;2022-07-22T10:13:04;8.95;;;6.95;;
70026;SDS011;57506;50.092;15.804;2022-07-22T10:15:31;10.07;;;7.40;;
70026;SDS011;57506;50.092;15.804;2022-07-22T10:18:01;8.57;;;6.72;;
70026;SDS011;57506;50.092;15.804;2022-07-22T10:20:33;9.57;;;6.82;;
70026;SDS011;57506;50.092;15.804;2022-07-22T10:23:04;10.63;;;6.53;;
70026;SDS011;57506;50.092;15.804;2022-07-22T10:25:32;7.88;;;5.95;;
70026;SDS011;57506;50.092;15.804;2022-07-22T10:28:21;12.15;;;7.38;;
70026;SDS011;57506;50.092;15.804;2022-07-22T10:30:50;10.57;;;7.45;;
70026;SDS011;57506;50.092;15.804;2022-07-22T10:33:20;10.20;;;7.32;;
70026;SDS011;57506;50.092;15.804;2022-07-22T10:35:54;8.83;;;6.90;;
70026;SDS011;57506;50.092;15.804;2022-07-22T10:38:19;11.55;;;7.57;;
70026;SDS011;57506;50.092;15.804;2022-07-22T10:40:48;9.60;;;6.80;;
70026;SDS011;57506;50.092;15.804;2022-07-22T10:43:20;12.45;;;6.75;;
70026;SDS011;57506;50.092;15.804;2022-07-22T10:49:02;12.57;;;6.83;;
70026;SDS011;57506;50.092;15.804;2022-07-22T10:51:19;9.40;;;6.35;;
70026;SDS011;57506;50.092;15.804;2022-07-22T10:53:47;10.00;;;6.65;;
70026;SDS011;57506;50.092;15.804;2022-07-22T10:58:49;9.87;;;6.00;;
70026;SDS011;57506;50.092;15.804;2022-07-22T11:01:18;9.75;;;6.40;;
70026;SDS011;57506;50.092;15.804;2022-07-22T11:03:46;9.10;;;6.43;;
70026;SDS011;57506;50.092;15.804;2022-07-22T11:06:17;12.27;;;6.43;;
70026;SDS011;57506;50.092;15.804;2022-07-22T11:08:55;12.47;;;6.37;;
70026;SDS011;57506;50.092;15.804;2022-07-22T11:11:44;11.30;;;5.82;;
70026;SDS011;57506;50.092;15.804;2022-07-22T11:16:58;8.27;;;5.75;;
70026;SDS011;57506;50.092;15.804;2022-07-22T11:19:29;9.43;;;6.90;;
70026;SDS011;57506;50.092;15.804;2022-07-22T11:22:00;10.20;;;6.33;;
70026;SDS011;57506;50.092;15.804;2022-07-22T11:24:48;10.27;;;6.90;;
70026;SDS011;57506;50.092;15.804;2022-07-22T11:27:15;8.95;;;6.10;;
70026;SDS011;57506;50.092;15.804;2022-07-22T11:29:42;9.13;;;6.50;;
70026;SDS011;57506;50.092;15.804;2022-07-22T11:32:12;9.77;;;6.15;;
70026;SDS011;57506;50.092;15.804;2022-07-22T11:34:40;7.97;;;6.37;;
70026;SDS011;57506;50.092;15.804;2022-07-22T11:37:10;9.63;;;6.45;;
70026;SDS011;57506;50.092;15.804;2022-07-22T11:39:37;8.07;;;6.40;;
70026;SDS011;57506;50.092;15.804;2022-07-22T11:42:03;10.43;;;6.55;;
70026;SDS011;57506;50.092;15.804;2022-07-22T11:44:30;8.60;;;7.07;;
70026;SDS011;57506;50.092;15.804;2022-07-22T11:46:58;9.25;;;7.18;;
70026;SDS011;57506;50.092;15.804;2022-07-22T11:49:24;8.85;;;6.63;;
70026;SDS011;57506;50.092;15.804;2022-07-22T11:51:51;8.73;;;6.85;;
70026;SDS011;57506;50.092;15.804;2022-07-22T11:54:17;14.27;;;7.10;;
70026;SDS011;57506;50.092;15.804;2022-07-22T11:56:44;9.20;;;7.03;;
70026;SDS011;57506;50.092;15.804;2022-07-22T11:59:13;10.48;;;7.20;;
70026;SDS011;57506;50.092;15.804;2022-07-22T12:01:40;9.15;;;6.43;;
70026;SDS011;57506;50.092;15.804;2022-07-22T12:04:07;10.20;;;7.17;;
70026;SDS011;57506;50.092;15.804;2022-07-22T12:06:35;12.07;;;7.45;;
70026;SDS011;57506;50.092;15.804;2022-07-22T12:11:44;10.23;;;6.30;;
70026;SDS011;57506;50.092;15.804;2022-07-22T12:14:16;12.17;;;7.13;;
70026;SDS011;57506;50.092;15.804;2022-07-22T12:19:20;8.52;;;6.45;;
70026;SDS011;57506;50.092;15.804;2022-07-22T12:21:53;12.55;;;7.40;;
70026;SDS011;57506;50.092;15.804;2022-07-22T12:24:30;8.15;;;7.15;;
70026;SDS011;57506;50.092;15.804;2022-07-22T12:26:57;7.80;;;6.40;;
70026;SDS011;57506;50.092;15.804;2022-07-22T12:29:28;9.75;;;7.20;;
70026;SDS011;57506;50.092;15.804;2022-07-22T12:31:57;9.15;;;6.80;;
70026;SDS011;57506;50.092;15.804;2022-07-22T12:34:41;8.93;;;6.40;;
70026;SDS011;57506;50.092;15.804;2022-07-22T12:37:25;11.45;;;6.95;;
70026;SDS011;57506;50.092;15.804;2022-07-22T12:39:58;9.40;;;6.73;;
70026;SDS011;57506;50.092;15.804;2022-07-22T12:42:40;11.05;;;6.53;;
70026;SDS011;57506;50.092;15.804;2022-07-22T12:45:08;9.68;;;6.68;;
70026;SDS011;57506;50.092;15.804;2022-07-22T12:47:38;7.65;;;6.30;;
70026;SDS011;57506;50.092;15.804;2022-07-22T12:52:54;8.07;;;6.57;;
70026;SDS011;57506;50.092;15.804;2022-07-22T12:55:21;11.93;;;6.82;;
70026;SDS011;57506;50.092;15.804;2022-07-22T12:57:47;9.23;;;6.90;;
70026;SDS011;57506;50.092;15.804;2022-07-22T13:00:19;9.80;;;7.00;;
70026;SDS011;57506;50.092;15.804;2022-07-22T13:02:47;11.48;;;6.95;;
70026;SDS011;57506;50.092;15.804;2022-07-22T13:05:12;11.07;;;6.78;;
70026;SDS011;57506;50.092;15.804;2022-07-22T13:07:38;11.20;;;6.50;;
70026;SDS011;57506;50.092;15.804;2022-07-22T13:10:05;12.40;;;7.20;;
70026;SDS011;57506;50.092;15.804;2022-07-22T13:12:32;10.20;;;7.07;;
70026;SDS011;57506;50.092;15.804;2022-07-22T13:14:57;9.25;;;7.22;;
70026;SDS011;57506;50.092;15.804;2022-07-22T13:17:23;11.53;;;6.43;;
70026;SDS011;57506;50.092;15.804;2022-07-22T13:19:48;9.87;;;6.60;;
70026;SDS011;57506;50.092;15.804;2022-07-22T13:22:14;8.98;;;6.25;;
70026;SDS011;57506;50.092;15.804;2022-07-22T13:24:39;8.17;;;6.43;;
70026;SDS011;57506;50.092;15.804;2022-07-22T13:27:05;8.02;;;6.40;;
70026;SDS011;57506;50.092;15.804;2022-07-22T13:29:31;8.33;;;6.43;;
70026;SDS011;57506;50.092;15.804;2022-07-22T13:31:56;11.05;;;7.18;;
70026;SDS011;57506;50.092;15.804;2022-07-22T13:34:22;8.67;;;5.87;;
70026;SDS011;57506;50.092;15.804;2022-07-22T13:36:47;9.53;;;6.47;;
70026;SDS011;57506;50.092;15.804;2022-07-22T13:39:13;10.38;;;6.57;;
70026;SDS011;57506;50.092;15.804;2022-07-22T13:41:39;9.37;;;7.03;;
70026;SDS011;57506;50.092;15.804;2022-07-22T13:44:04;10.27;;;6.55;;
70026;SDS011;57506;50.092;15.804;2022-07-22T13:46:33;8.73;;;6.73;;
70026;SDS011;57506;50.092;15.804;2022-07-22T13:48:59;8.80;;;6.97;;
70026;SDS011;57506;50.092;15.804;2022-07-22T13:51:25;8.23;;;6.05;;
70026;SDS011;57506;50.092;15.804;2022-07-22T13:53:51;9.97;;;6.40;;
70026;SDS011;57506;50.092;15.804;2022-07-22T13:56:16;11.37;;;6.70;;
70026;SDS011;57506;50.092;15.804;2022-07-22T13:58:42;10.25;;;6.20;;
70026;SDS011;57506;50.092;15.804;2022-07-22T14:01:08;11.57;;;6.50;;
70026;SDS011;57506;50.092;15.804;2022-07-22T14:03:35;8.93;;;6.20;;
70026;SDS011;57506;50.092;15.804;2022-07-22T14:06:01;8.00;;;6.18;;
70026;SDS011;57506;50.092;15.804;2022-07-22T14:08:27;8.93;;;6.60;;
70026;SDS011;57506;50.092;15.804;2022-07-22T14:10:52;12.53;;;6.53;;
70026;SDS011;57506;50.092;15.804;2022-07-22T14:13:18;7.95;;;6.40;;
70026;SDS011;57506;50.092;15.804;2022-07-22T14:15:44;8.53;;;6.13;;
70026;SDS011;57506;50.092;15.804;2022-07-22T14:18:09;9.57;;;6.32;;
70026;SDS011;57506;50.092;15.804;2022-07-22T14:20:35;9.83;;;6.20;;
70026;SDS011;57506;50.092;15.804;2022-07-22T14:23:02;7.80;;;6.68;;
70026;SDS011;57506;50.092;15.804;2022-07-22T14:25:30;8.23;;;6.10;;
70026;SDS011;57506;50.092;15.804;2022-07-22T14:27:56;13.80;;;6.43;;
70026;SDS011;57506;50.092;15.804;2022-07-22T14:30:21;8.90;;;6.38;;
70026;SDS011;57506;50.092;15.804;2022-07-22T14:32:47;8.03;;;6.57;;
70026;SDS011;57506;50.092;15.804;2022-07-22T14:35:13;9.05;;;6.60;;
70026;SDS011;57506;50.092;15.804;2022-07-22T14:37:38;7.03;;;5.83;;